Flight Track Log - Related Links

Times and Time Zones

All times are in EDT time to prevent confusion due to time zone crossing. See the EJA831 flight status page for this flight to view local times or setup timezone preferences in your user account.


Time Position Orientation Groundspeed Altitude Reporting Facility
EDT Latitude Longitude Course Direction KTS MPH feet Rate Location/Type
Thu 04:35:26 PM 39.8833 -86.2833 360° North 205 236 2,900  Level Indianapolis TRACON
Thu 04:36:26 PM 39.9167 -86.2167 57° Northeast 234 269 3,900 414 Climbing Indianapolis TRACON
Thu 04:37:51 PM 39.9147 -86.0931 91° East 241 277 3,900 612 Level Indianapolis Center
Thu 04:38:53 PM 39.9172 -85.9961 88° East 255 293 5,400 1,452 Climbing Indianapolis Center
Thu 04:39:55 PM 39.9217 -85.8969 87° East 265 305 6,900 2,081 Climbing Indianapolis Center
Thu 04:40:00 PM 39.8667 -85.5140 90° East  Level FlightAware Approximate
Thu 04:40:57 PM 39.9261 -85.7753 87° East 277 319 9,700  Level Indianapolis Center
Thu 04:41:59 PM 39.9289 -85.6611 88° East 311 358 12,100 2,352 Climbing Indianapolis Center
Thu 04:43:02 PM 39.9297 -85.5386 89° East 338 389 14,600 2,448 Climbing Indianapolis Center
Thu 04:44:04 PM 39.9303 -85.4128 90° East 346 398 17,200 2,468 Climbing Indianapolis Center
Thu 04:45:06 PM 39.9322 -85.2872 89° East 348 400 19,700 2,419 Climbing Indianapolis Center
Thu 04:46:08 PM 39.9311 -85.1589 91° East 354 407 22,200 2,371 Climbing Indianapolis Center
Thu 04:47:10 PM 39.9308 -85.0003 90° East 365 420 24,600 1,645 Climbing Indianapolis Center
Thu 04:48:12 PM 39.9300 -84.8725 90° East 387 445 25,600 677 Climbing Indianapolis Center
Thu 04:49:14 PM 39.9292 -84.7183 90° East 415 478 26,000 774 Climbing Indianapolis Center
Thu 04:50:16 PM 39.9272 -84.5317 91° East 435 501 27,200 1,065 Climbing Indianapolis Center
Thu 04:51:18 PM 39.9256 -84.3725 91° East 437 503 28,200 1,016 Climbing Indianapolis Center
Thu 04:52:20 PM 39.9242 -84.2125 91° East 437 503 29,300 1,016 Climbing Indianapolis Center
Thu 04:53:22 PM 39.9222 -84.0525 91° East 437 503 30,300 823 Climbing Indianapolis Center
Thu 04:54:24 PM 39.9197 -83.8936 91° East 436 502 31,000 339 Climbing Indianapolis Center
Thu 04:55:26 PM 39.9175 -83.7300 91° East 445 512 31,000  Level Indianapolis Center
Thu 04:56:28 PM 39.9158 -83.5653 91° East 446 513 31,000  Level Indianapolis Center
Thu 04:57:30 PM 39.9117 -83.3844 92° East 448 516 31,000  Level Indianapolis Center
Thu 04:58:32 PM 39.9089 -83.2267 91° East 453 521 31,000  Level Indianapolis Center
Thu 04:59:34 PM 39.9058 -83.0622 91° East 451 519 31,000  Level Indianapolis Center
Thu 05:00:36 PM 39.9011 -82.8686 92° East 454 522 31,000  Level Indianapolis Center
Thu 05:01:39 PM 39.8969 -82.7025 92° East 455 524 31,000  Level Indianapolis Center
Thu 05:02:40 PM 39.8936 -82.5358 91° East 457 526 31,000  Level Indianapolis Center
Thu 05:03:42 PM 39.8881 -82.3694 92° East 457 526 31,000  Level Indianapolis Center
Thu 05:04:44 PM 39.8839 -82.2044 92° East 454 522 31,000  Level Indianapolis Center
Thu 05:05:47 PM 39.8786 -82.0397 92° East 452 520 31,000  Level Indianapolis Center
Thu 05:06:49 PM 39.8733 -81.8744 92° East 453 521 31,000  Level Indianapolis Center
Thu 05:07:51 PM 39.8681 -81.6847 92° East 448 516 31,000  Level Indianapolis Center
Thu 05:08:53 PM 39.8483 -81.5225 99° East 451 519 31,000  Level Indianapolis Center
Thu 05:09:55 PM 39.8153 -81.3594 105° East 446 513 31,000  Level Indianapolis Center
Thu 05:10:57 PM 39.7783 -81.2031 107° East 450 518 31,000  Level Indianapolis Center
Thu 05:11:59 PM 39.7417 -81.0469 107° East 450 518 31,000  Level Indianapolis Center
Thu 05:13:01 PM 39.7036 -80.8917 108° East 449 517 31,000  Level Indianapolis Center
Thu 05:14:03 PM 39.6664 -80.7361 107° East 450 518 31,000  Level Indianapolis Center
Thu 05:15:05 PM 39.6289 -80.5803 107° East 450 518 31,000  Level Indianapolis Center
Thu 05:16:07 PM 39.5897 -80.4267 108° East 449 517 31,000  Level Indianapolis Center
Thu 05:17:03 PM 39.5578 -80.2806 106° East 456 525 31,000  Level Washington Center
Thu 05:18:03 PM 39.5200 -80.1275 108° East 449 517 31,000 -694 Level Washington Center
Thu 05:19:04 PM 39.4797 -79.9744 109° East 449 517 29,600 -1,462 Descending Washington Center
Thu 05:20:02 PM 39.4497 -79.8247 105° East 444 511 28,100 -1,525 Descending Washington Center
Thu 05:21:02 PM 39.4172 -79.6750 106° East 439 505 26,600 -1,500 Descending Washington Center
Thu 05:22:02 PM 39.3889 -79.5283 104° East 434 499 25,100 -793 Descending Washington Center
Thu 05:23:03 PM 39.3581 -79.3817 105° East 424 488 25,000 -50 Descending Washington Center
Thu 05:24:03 PM 39.3214 -79.2217 106° East 424 488 25,000 -893 Level Washington Center
Thu 05:25:04 PM 39.2903 -79.0806 106° East 424 488 23,200 -1,983 Descending Washington Center
Thu 05:26:04 PM 39.2608 -78.9397 105° East 418 481 21,000 -2,186 Descending Washington Center
Thu 05:27:02 PM 39.2311 -78.8044 106° East 408 470 18,900 -1,966 Descending Washington Center
Thu 05:28:03 PM 39.2053 -78.6800 105° East 383 441 17,100 -1,884 Descending Washington Center
Thu 05:29:03 PM 39.1772 -78.5531 106° East 371 427 15,100 -1,934 Descending Washington Center
Thu 05:30:04 PM 39.1489 -78.4286 106° East 366 421 13,200 -1,835 Descending Washington Center
Thu 05:31:04 PM 39.1244 -78.3153 106° East 352 405 11,400 -1,641 Descending Washington Center
Thu 05:32:01 PM 39.0697 -78.2464 136° Southeast 286 329 10,000 -1,513 Descending Washington Center
Thu 05:33:03 PM 38.9933 -78.2117 161° South 276 318 8,400 -1,574 Descending Washington Center
Thu 05:34:03 PM 38.9189 -78.1797 162° South 276 318 6,800 -1,613 Descending Washington Center
Thu 05:35:02 PM 38.8492 -78.1292 151° Southeast 281 323 5,200 -908 Descending Washington Center
Thu 05:36:02 PM 38.7814 -78.0789 150° Southeast 281 323 5,000 -99 Descending Washington Center
Thu 05:37:03 PM 38.7369 -78.0083 129° Southeast 281 323 5,000  Level Washington Center
Thu 05:38:04 PM 38.6950 -77.9217 122° Southeast 286 329 5,000  Level Washington Center
Thu 05:39:02 PM 38.6822 -77.8256 100° East 272 313 5,000  Level Washington Center
Thu 05:41:13 PM 38.6667 -77.5833 95° East 285 328 5,000  Level Potomac TRACON
Thu 05:42:13 PM 38.6667 -77.4833 90° East 282 325 5,000 -300 Level Potomac TRACON
Thu 05:43:13 PM 38.7333 -77.4333 30° Northeast 266 306 4,400 -893 Descending Potomac TRACON
Thu 05:44:14 PM 38.8000 -77.4333 360° North 242 278 3,200 -1,339 Descending Potomac TRACON
Thu 05:45:14 PM 38.8500 -77.4333 360° North 220 253 1,700 -1,200 Descending Potomac TRACON
Thu 05:46:14 PM 38.9000 -77.4333 360° North 141 162 800 -900 Descending Potomac TRACON
Thu 05:48:00 PM 38.9333 -77.4500 90° East  Level FlightAware Approximate
Thu 05:55:00 PM 38.9474 -77.4599 90° East  Level Estimated

Login

Don't have an account? Register now (free) for customized features, flight alerts, and more!